Time;durP1;ratioP1;P1;durP2;ratioP2;P2;SDS_P1;SDS_P2;PMS_P1;PMS_P2;Temp;Humidity;BMP_temperature;BMP_pressure;BME280_temperature;BME280_humidity;BME280_pressure;Samples;Min_cycle;Max_cycle;Signal;HPM_P1;HPM_P2
2021/07/13 00:01:28;;;;;;;;;6.00;4.75;;;;;20.13;65.63;100666.25;4886843;29;45496;-68
2021/07/13 00:03:53;;;;;;;;;5.00;5.00;;;;;20.15;65.08;100663.44;4888291;29;45322;-68
2021/07/13 00:06:21;;;;;;;;;5.00;4.00;;;;;20.22;65.11;100672.84;4886194;29;45251;-68
2021/07/13 00:08:51;;;;;;;;;4.50;4.25;;;;;20.27;65.17;100681.50;4886678;29;45310;-68
2021/07/13 00:11:19;;;;;;;;;5.50;5.50;;;;;20.33;65.02;100677.44;4889827;29;45377;-68
2021/07/13 00:13:45;;;;;;;;;6.50;6.50;;;;;20.40;64.74;100675.13;4886719;29;45207;-68
2021/07/13 00:16:11;;;;;;;;;5.75;5.75;;;;;20.46;65.09;100682.81;4886393;29;45227;-68
2021/07/13 00:18:37;;;;;;;;;7.25;4.25;;;;;20.43;65.11;100667.66;4886582;29;45225;-68
2021/07/13 00:21:03;;;;;;;;;6.00;6.00;;;;;20.39;65.28;100671.56;4895317;29;45235;-68
2021/07/13 00:23:29;;;;;;;;;7.00;7.00;;;;;20.35;64.96;100672.81;4896752;29;45333;-69
2021/07/13 00:25:55;;;;;;;;;6.75;5.75;;;;;20.38;64.95;100687.94;4898836;29;45466;-69
2021/07/13 00:28:20;;;;;;;;;7.50;7.50;;;;;20.36;65.12;100686.25;4886248;29;45310;-68
2021/07/13 00:30:45;;;;;;;;;6.50;6.00;;;;;20.33;65.38;100683.75;4886422;29;45393;-69
2021/07/13 00:33:11;;;;;;;;;7.00;7.00;;;;;20.34;65.58;100680.03;4886243;29;45393;-68
2021/07/13 00:35:36;;;;;;;;;6.25;6.25;;;;;20.34;65.67;100676.47;4885493;29;49129;-69
2021/07/13 00:38:01;;;;;;;;;8.25;8.00;;;;;20.34;65.76;100676.47;4890102;29;45321;-68
2021/07/13 00:40:27;;;;;;;;;8.00;8.00;;;;;20.32;65.42;100676.59;4889876;29;45253;-68
2021/07/13 00:42:53;;;;;;;;;7.00;7.00;;;;;20.28;65.64;100661.53;4886245;29;45249;-69
2021/07/13 00:45:19;;;;;;;;;8.50;8.50;;;;;20.27;65.38;100650.81;4885887;29;46323;-68
2021/07/13 00:47:49;;;;;;;;;9.75;8.50;;;;;20.26;65.77;100635.53;4885885;29;45444;-68
2021/07/13 00:50:16;;;;;;;;;11.25;10.00;;;;;20.25;65.75;100641.94;4886151;29;45398;-68
2021/07/13 00:52:41;;;;;;;;;10.50;10.50;;;;;20.23;66.16;100633.03;4885813;29;45269;-69
2021/07/13 00:55:09;;;;;;;;;8.25;7.75;;;;;20.23;66.08;100633.94;4885863;29;45337;-68
2021/07/13 00:57:36;;;;;;;;;11.50;11.50;;;;;20.19;65.66;100640.53;4885933;29;45471;-68
2021/07/13 01:00:05;;;;;;;;;10.50;10.50;;;;;20.22;65.71;100640.31;4885973;29;45270;-69
2021/07/13 01:02:31;;;;;;;;;11.50;11.50;;;;;20.23;65.79;100633.94;4885578;29;45324;-68
2021/07/13 01:05:00;;;;;;;;;10.00;10.00;;;;;20.22;66.00;100634.03;4896685;29;46421;-68
2021/07/13 01:07:46;;;;;;;;;13.75;12.75;;;;;20.22;65.69;100639.47;4885550;29;45327;-68
2021/07/13 01:10:23;;;;;;;;;12.25;11.50;;;;;20.21;65.80;100635.00;4889469;29;45406;-68
2021/07/13 01:13:13;;;;;;;;;13.25;13.25;;;;;20.19;65.71;100621.56;4885548;29;45699;-68
2021/07/13 01:15:45;;;;;;;;;13.50;13.50;;;;;20.16;65.82;100614.53;4868758;29;47322;-68
2021/07/13 01:18:20;;;;;;;;;14.00;14.00;;;;;20.16;65.68;100624.50;4885415;29;45321;-68
2021/07/13 01:21:00;;;;;;;;;16.50;15.25;;;;;20.11;65.56;100633.00;4893093;29;45329;-68
2021/07/13 01:23:39;;;;;;;;;14.00;12.50;;;;;20.08;65.80;100627.81;4896159;29;45368;-69
2021/07/13 01:26:23;;;;;;;;;20.25;15.75;;;;;20.06;66.02;100631.59;4885440;29;46127;-68
2021/07/13 01:28:56;;;;;;;;;16.25;16.00;;;;;20.05;65.79;100628.03;4885365;29;45566;-68
2021/07/13 01:31:22;;;;;;;;;14.75;14.75;;;;;20.02;65.77;100613.84;4885624;29;45242;-68
2021/07/13 01:33:57;;;;;;;;;18.00;17.00;;;;;20.01;65.98;100612.97;4885004;29;45435;-69
2021/07/13 01:36:32;;;;;;;;;15.75;15.50;;;;;20.00;65.87;100630.22;4885195;29;45263;-68
2021/07/13 01:38:59;;;;;;;;;14.25;13.75;;;;;20.02;65.54;100638.22;4893317;29;45439;-69
2021/07/13 01:41:26;;;;;;;;;13.75;13.75;;;;;20.04;65.82;100642.53;4885378;29;45328;-68
2021/07/13 01:43:53;;;;;;;;;12.25;12.25;;;;;19.96;65.95;100643.13;4885232;29;45329;-68
2021/07/13 01:46:20;;;;;;;;;15.25;13.50;;;;;20.07;65.70;100652.31;4883961;29;47262;-68
2021/07/13 01:48:48;;;;;;;;;13.75;13.75;;;;;20.07;65.61;100663.13;4885044;29;45173;-68
2021/07/13 01:51:15;;;;;;;;;14.25;12.25;;;;;20.02;66.06;100654.47;4885050;29;45359;-68
2021/07/13 01:53:40;;;;;;;;;14.00;12.50;;;;;20.03;65.89;100646.25;4885087;29;45361;-68
2021/07/13 01:56:08;;;;;;;;;13.50;13.50;;;;;20.04;65.91;100644.38;4884997;29;46184;-68
2021/07/13 01:58:34;;;;;;;;;14.50;13.00;;;;;20.04;65.69;100636.25;4884930;29;45231;-68
2021/07/13 02:01:13;;;;;;;;;11.75;11.75;;;;;20.03;65.56;100638.13;4885188;29;45246;-68
2021/07/13 02:03:40;;;;;;;;;12.75;11.75;;;;;20.00;65.62;100649.19;4886488;29;45374;-68
2021/07/13 02:06:06;;;;;;;;;12.50;11.00;;;;;20.02;65.84;100659.91;4884669;29;45408;-68
2021/07/13 02:08:37;;;;;;;;;16.75;14.75;;;;;19.99;65.92;100658.25;4897333;29;45352;-68
2021/07/13 02:11:03;;;;;;;;;13.00;11.50;;;;;19.95;65.44;100645.94;4888766;29;45153;-68
2021/07/13 02:13:28;;;;;;;;;10.50;10.50;;;;;19.96;65.43;100659.38;4884644;29;45475;-68
2021/07/13 02:15:53;;;;;;;;;10.75;10.75;;;;;19.94;65.57;100646.91;4884254;29;46274;-68
2021/07/13 02:18:19;;;;;;;;;11.00;10.25;;;;;19.97;65.62;100647.53;4884636;29;45273;-68
2021/07/13 02:20:44;;;;;;;;;14.50;12.00;;;;;19.99;65.89;100639.31;4884648;29;45312;-68
2021/07/13 02:23:10;;;;;;;;;7.25;7.25;;;;;20.01;65.75;100636.47;4884607;29;45402;-68
2021/07/13 02:25:36;;;;;;;;;12.25;9.75;;;;;20.02;65.69;100624.69;4883303;29;45920;-68
2021/07/13 02:28:29;;;;;;;;;10.00;10.00;;;;;20.01;65.83;100628.34;4884557;29;45377;-68
2021/07/13 02:31:02;;;;;;;;;9.75;9.75;;;;;19.96;65.37;100628.69;4883653;29;45626;-68
2021/07/13 02:33:33;;;;;;;;;8.00;7.00;;;;;20.01;65.64;100639.19;4884502;29;45316;-68
2021/07/13 02:36:03;;;;;;;;;7.75;7.25;;;;;20.02;65.69;100655.34;4884265;29;45919;-68
2021/07/13 02:38:29;;;;;;;;;9.50;9.25;;;;;20.02;65.38;100643.66;4891908;29;45436;-68
2021/07/13 02:40:56;;;;;;;;;9.00;8.00;;;;;20.03;65.58;100646.25;4885164;29;45336;-68
2021/07/13 02:43:22;;;;;;;;;9.00;9.00;;;;;20.05;65.51;100640.72;4884601;29;45572;-68
2021/07/13 02:45:53;;;;;;;;;7.75;7.00;;;;;20.04;65.56;100639.81;4883029;29;45954;-68
2021/07/13 02:48:19;;;;;;;;;10.75;8.00;;;;;20.03;65.73;100637.22;4884193;29;45300;-68
2021/07/13 02:50:46;;;;;;;;;8.00;8.00;;;;;20.01;65.14;100633.78;4884533;29;45369;-68
2021/07/13 02:53:13;;;;;;;;;12.00;9.75;;;;;20.05;65.31;100647.00;4884355;29;45666;-69
2021/07/13 02:55:43;;;;;;;;;10.75;9.50;;;;;20.06;65.58;100646.00;4884492;29;45273;-68
2021/07/13 02:58:09;;;;;;;;;7.00;7.00;;;;;20.07;65.45;100649.59;4884172;29;45623;-68
2021/07/13 03:00:35;;;;;;;;;9.75;7.00;;;;;20.07;65.45;100645.03;4884548;29;45521;-68
2021/07/13 03:03:01;;;;;;;;;11.00;8.50;;;;;20.08;65.52;100644.06;4885924;29;45269;-68
2021/07/13 03:05:28;;;;;;;;;10.00;7.75;;;;;20.06;65.02;100637.88;4884069;29;46100;-68
2021/07/13 03:07:55;;;;;;;;;9.75;9.00;;;;;20.07;65.29;100645.03;4896575;29;45466;-68
2021/07/13 03:10:24;;;;;;;;;10.75;7.50;;;;;20.07;65.07;100649.59;4888003;29;45190;-68
2021/07/13 03:12:54;;;;;;;;;6.50;6.50;;;;;20.03;65.50;100648.06;4884246;29;45318;-68
2021/07/13 03:15:27;;;;;;;;;8.50;8.00;;;;;20.07;65.28;100652.31;4884159;29;47050;-69
2021/07/13 03:17:53;;;;;;;;;6.50;6.50;;;;;20.09;65.63;100663.88;4884084;29;45390;-68
2021/07/13 03:20:22;;;;;;;;;9.50;8.25;;;;;20.04;65.21;100644.38;4883961;29;45309;-69
2021/07/13 03:22:49;;;;;;;;;7.75;7.75;;;;;20.12;65.39;100642.84;4884130;29;45517;-68
2021/07/13 03:25:27;;;;;;;;;13.00;10.00;;;;;20.11;65.34;100645.66;4883899;29;45469;-69
2021/07/13 03:27:54;;;;;;;;;9.00;7.25;;;;;20.10;65.52;100639.38;4885727;29;45314;-68
2021/07/13 03:30:20;;;;;;;;;9.25;8.25;;;;;20.11;65.00;100633.00;4897184;29;45809;-68
2021/07/13 03:32:49;;;;;;;;;12.00;9.50;;;;;20.12;65.30;100628.44;4886857;29;45459;-69
2021/07/13 03:35:16;;;;;;;;;11.25;8.50;;;;;20.12;65.17;100618.44;4886673;29;47091;-68
2021/07/13 03:37:42;;;;;;;;;9.50;8.00;;;;;20.13;65.24;100622.00;4888325;29;45484;-68
2021/07/13 03:40:09;;;;;;;;;11.25;9.50;;;;;20.15;65.22;100620.06;4893139;29;45265;-68
2021/07/13 03:42:34;;;;;;;;;11.00;10.50;;;;;20.11;65.45;100614.03;4887101;29;45217;-69
2021/07/13 03:45:00;;;;;;;;;8.50;8.50;;;;;20.13;65.15;100622.00;4886954;29;45837;-68
2021/07/13 03:47:25;;;;;;;;;9.00;9.00;;;;;20.14;65.26;100623.75;4886894;29;45305;-68
2021/07/13 03:49:50;;;;;;;;;7.00;7.00;;;;;20.14;65.70;100621.03;4886903;29;45290;-69
2021/07/13 03:52:17;;;;;;;;;10.75;9.50;;;;;20.15;65.58;100631.78;4886815;29;45210;-68
2021/07/13 03:54:43;;;;;;;;;8.75;8.25;;;;;20.11;65.30;100624.88;4887361;29;46397;-68
2021/07/13 03:57:08;;;;;;;;;10.25;10.25;;;;;20.14;65.42;100629.19;4898975;29;45499;-68
2021/07/13 03:59:34;;;;;;;;;11.00;10.75;;;;;20.15;65.73;100630.91;4886954;29;45326;-68
2021/07/13 04:02:00;;;;;;;;;10.00;10.00;;;;;20.16;65.35;100633.50;4886848;29;45608;-68
2021/07/13 04:04:25;;;;;;;;;13.25;10.75;;;;;20.18;65.46;100630.69;4887659;29;45290;-68
2021/07/13 04:06:50;;;;;;;;;11.75;9.75;;;;;20.17;65.30;100634.38;4894282;29;45479;-69
2021/07/13 04:09:16;;;;;;;;;11.75;11.75;;;;;20.16;65.36;100635.34;4901688;29;45492;-69
2021/07/13 04:11:42;;;;;;;;;13.25;10.25;;;;;20.17;65.12;100637.09;4887894;29;45475;-69
2021/07/13 04:14:07;;;;;;;;;13.25;11.75;;;;;20.14;65.50;100630.03;4886517;29;46653;-69
2021/07/13 04:16:34;;;;;;;;;8.50;8.50;;;;;20.13;65.54;100627.44;4892312;29;45698;-68
2021/07/13 04:19:00;;;;;;;;;10.75;9.00;;;;;20.11;65.41;100623.97;4897506;29;45400;-69
2021/07/13 04:21:26;;;;;;;;;13.25;12.00;;;;;20.14;65.17;100631.88;4887537;29;45432;-69
2021/07/13 04:23:51;;;;;;;;;11.25;10.50;;;;;20.14;65.10;100626.47;4886333;29;45418;-68
2021/07/13 04:26:16;;;;;;;;;14.00;13.50;;;;;20.14;65.39;100630.03;4886190;29;47681;-68
2021/07/13 04:28:42;;;;;;;;;12.50;11.50;;;;;20.11;65.38;100627.56;4886437;29;45440;-68
2021/07/13 04:31:08;;;;;;;;;9.75;9.75;;;;;20.09;65.84;100631.38;4887457;29;45267;-68
2021/07/13 04:33:33;;;;;;;;;13.00;13.00;;;;;20.11;65.33;100640.25;4896041;29;47512;-69
2021/07/13 04:35:59;;;;;;;;;14.25;13.75;;;;;20.12;65.32;100640.13;4900201;29;45259;-69
2021/07/13 04:38:25;;;;;;;;;13.00;12.00;;;;;20.14;65.26;100640.88;4896772;29;45372;-68
2021/07/13 04:40:50;;;;;;;;;15.00;13.75;;;;;20.14;65.18;100643.59;4896603;29;45684;-69
2021/07/13 04:43:16;;;;;;;;;16.00;15.00;;;;;20.15;65.38;100641.75;4885536;29;45533;-68
2021/07/13 04:45:41;;;;;;;;;15.75;13.50;;;;;20.08;65.28;100630.50;4885846;29;45365;-69
2021/07/13 04:48:07;;;;;;;;;15.75;14.50;;;;;20.15;65.40;100636.34;4885946;29;45342;-68
2021/07/13 04:50:32;;;;;;;;;13.50;11.25;;;;;20.14;65.07;100634.59;4887631;29;45580;-69
2021/07/13 04:52:58;;;;;;;;;14.25;11.25;;;;;20.06;65.18;100609.91;4894085;29;45396;-68
2021/07/13 04:55:23;;;;;;;;;15.00;15.00;;;;;20.10;65.27;100619.56;4885934;29;45193;-68
2021/07/13 04:57:49;;;;;;;;;16.25;15.25;;;;;20.11;65.63;100618.56;4886101;29;45474;-68
2021/07/13 05:00:15;;;;;;;;;12.00;12.00;;;;;20.02;65.70;100608.44;4888488;29;45607;-68
2021/07/13 05:02:41;;;;;;;;;15.25;13.50;;;;;20.10;65.49;100628.53;4893898;29;46210;-68
2021/07/13 05:05:10;;;;;;;;;14.50;13.25;;;;;20.05;65.50;100625.31;4886947;29;45378;-69
2021/07/13 05:07:45;;;;;;;;;12.50;10.75;;;;;20.06;65.46;100637.00;4885703;29;45421;-68
2021/07/13 05:10:12;;;;;;;;;17.00;13.75;;;;;19.99;65.52;100629.31;4890314;29;45411;-68
2021/07/13 05:12:39;;;;;;;;;16.00;15.00;;;;;20.00;65.60;100638.34;4892424;29;46039;-68
2021/07/13 05:15:10;;;;;;;;;12.75;11.25;;;;;20.02;65.51;100640.94;4888676;29;45329;-68
2021/07/13 05:17:38;;;;;;;;;12.00;11.00;;;;;20.03;65.71;100640.81;4885352;29;45424;-68
2021/07/13 05:20:05;;;;;;;;;10.25;10.00;;;;;20.07;65.72;100644.16;4885809;29;45397;-68
2021/07/13 05:22:31;;;;;;;;;12.25;12.25;;;;;20.07;65.57;100641.47;4885073;29;46047;-68
2021/07/13 05:24:56;;;;;;;;;19.00;16.50;;;;;20.07;66.11;100646.88;4893058;29;45448;-68
2021/07/13 05:27:22;;;;;;;;;16.50;14.50;;;;;20.04;65.66;100647.09;4890407;29;45910;-69
2021/07/13 05:29:47;;;;;;;;;12.75;12.75;;;;;20.02;65.78;100654.47;4885544;29;45493;-68
2021/07/13 05:32:13;;;;;;;;;13.75;13.75;;;;;19.98;65.56;100649.28;4890168;29;45426;-68
2021/07/13 05:34:38;;;;;;;;;16.25;14.25;;;;;19.92;66.08;100647.00;4885032;29;45500;-68
2021/07/13 05:37:06;;;;;;;;;17.50;14.75;;;;;20.04;65.48;100666.06;4868263;29;45401;-68
2021/07/13 05:39:31;;;;;;;;;18.50;17.00;;;;;20.04;65.72;100671.47;4889831;29;45252;-68
2021/07/13 05:41:56;;;;;;;;;12.25;12.25;;;;;19.98;65.89;100668.25;4884954;29;46181;-68
2021/07/13 05:44:22;;;;;;;;;12.50;12.50;;;;;20.02;65.68;100676.16;4885361;29;45249;-69
2021/07/13 05:46:47;;;;;;;;;16.75;14.75;;;;;20.02;65.82;100671.59;4890266;29;45582;-69
2021/07/13 05:49:13;;;;;;;;;13.00;12.25;;;;;20.03;65.89;100667.03;4892521;29;45302;-68
2021/07/13 05:51:38;;;;;;;;;15.25;14.00;;;;;19.97;66.11;100657.53;4899288;29;45302;-69
2021/07/13 05:54:03;;;;;;;;;15.00;15.00;;;;;20.05;65.88;100662.38;4892677;29;45201;-69
2021/07/13 05:56:29;;;;;;;;;17.25;15.25;;;;;20.01;65.90;100656.31;4895296;29;45444;-68
2021/07/13 05:58:54;;;;;;;;;16.00;13.50;;;;;20.05;66.06;100673.22;4892259;29;45637;-68
2021/07/13 06:01:19;;;;;;;;;14.75;13.50;;;;;19.99;66.14;100669.97;4884674;29;50768;-68
2021/07/13 06:03:45;;;;;;;;;15.00;14.25;;;;;20.02;65.91;100668.88;4893849;29;45411;-69
2021/07/13 06:06:10;;;;;;;;;11.25;11.00;;;;;20.05;65.88;100668.66;4886010;29;45150;-68
2021/07/13 06:08:35;;;;;;;;;14.00;13.00;;;;;20.07;65.89;100666.69;4889983;29;47797;-68
2021/07/13 06:11:01;;;;;;;;;13.25;13.25;;;;;20.02;65.83;100654.47;4891269;29;48612;-68
2021/07/13 06:13:26;;;;;;;;;13.75;13.75;;;;;20.07;66.01;100660.44;4902858;29;50956;-69
2021/07/13 06:15:52;;;;;;;;;17.75;14.25;;;;;20.06;65.69;100648.69;4885900;29;45301;-69
2021/07/13 06:18:18;;;;;;;;;13.25;13.25;;;;;20.03;65.62;100658.91;4893512;29;45768;-69
2021/07/13 06:20:44;;;;;;;;;14.75;12.50;;;;;20.08;65.87;100665.72;4897545;29;46243;-69
2021/07/13 06:23:09;;;;;;;;;14.75;13.50;;;;;20.04;66.18;100660.66;4879617;29;45382;-69
2021/07/13 06:25:34;;;;;;;;;15.25;14.75;;;;;20.06;66.15;100662.25;4897949;29;45322;-69
2021/07/13 06:28:00;;;;;;;;;16.00;13.50;;;;;20.09;66.36;100667.44;4884546;29;45435;-69
2021/07/13 06:30:25;;;;;;;;;19.00;17.25;;;;;20.07;66.30;100655.00;4884610;29;45963;-69
2021/07/13 06:32:50;;;;;;;;;14.50;14.25;;;;;20.09;66.54;100653.91;4884462;29;49243;-69
2021/07/13 06:35:16;;;;;;;;;17.25;16.50;;;;;20.10;66.45;100652.94;4884086;29;45299;-68
2021/07/13 06:37:43;;;;;;;;;15.50;15.00;;;;;20.05;66.74;100647.00;4888368;29;45567;-69
2021/07/13 06:40:09;;;;;;;;;17.50;15.00;;;;;20.09;66.86;100653.03;4887040;29;45281;-69
2021/07/13 06:42:34;;;;;;;;;19.25;17.50;;;;;20.08;67.08;100652.19;4884219;29;45671;-68
2021/07/13 06:44:59;;;;;;;;;20.00;18.00;;;;;20.11;67.14;100645.66;4885097;29;45221;-68
2021/07/13 06:47:25;;;;;;;;;23.25;20.50;;;;;20.08;66.99;100646.78;4884323;29;49659;-69
2021/07/13 06:49:50;;;;;;;;;18.25;14.50;;;;;20.08;66.92;100637.75;4889815;29;46093;-68
2021/07/13 06:52:16;;;;;;;;;18.25;18.00;;;;;20.06;67.09;100639.72;4883459;29;45784;-69
2021/07/13 06:54:41;;;;;;;;;18.25;17.25;;;;;20.05;67.00;100629.88;4899283;29;45530;-69
2021/07/13 06:57:06;;;;;;;;;14.25;14.25;;;;;20.03;66.90;100635.41;4901107;29;45458;-68
2021/07/13 06:59:34;;;;;;;;;17.00;16.00;;;;;20.03;67.11;100631.81;4893684;29;45993;-69
2021/07/13 07:02:01;;;;;;;;;17.50;17.50;;;;;20.04;67.08;100634.41;4879765;29;45653;-69
2021/07/13 07:04:26;;;;;;;;;17.75;15.75;;;;;20.09;67.35;100636.78;4900017;29;45348;-69
2021/07/13 07:06:52;;;;;;;;;18.25;16.25;;;;;20.09;66.87;100636.78;4891297;29;45715;-69
2021/07/13 07:09:17;;;;;;;;;18.50;17.75;;;;;20.07;67.04;100627.91;4899951;29;46115;-69
2021/07/13 07:11:42;;;;;;;;;22.00;19.75;;;;;20.07;67.12;100630.63;4892336;29;48135;-69
2021/07/13 07:14:08;;;;;;;;;20.00;18.00;;;;;20.12;67.12;100631.13;4890525;29;45334;-69
2021/07/13 07:16:33;;;;;;;;;20.00;18.50;;;;;20.11;67.19;100634.81;4903993;29;46765;-69
2021/07/13 07:18:58;;;;;;;;;19.75;18.75;;;;;20.06;67.14;100620.75;4903207;29;46048;-69
2021/07/13 07:21:24;;;;;;;;;20.75;19.75;;;;;20.09;67.21;100615.09;4902766;29;45252;-71
2021/07/13 07:23:49;;;;;;;;;18.75;17.00;;;;;20.07;67.28;100611.66;4895225;29;45333;-71
2021/07/13 07:26:15;;;;;;;;;22.00;20.50;;;;;20.05;66.87;100617.19;4896334;29;45634;-71
2021/07/13 07:28:40;;;;;;;;;20.50;19.50;;;;;20.04;67.24;100633.56;4899545;29;46203;-71
2021/07/13 07:31:05;;;;;;;;;21.75;18.25;;;;;19.99;67.78;100631.19;4897834;29;45450;-71
2021/07/13 07:33:31;;;;;;;;;22.00;19.75;;;;;20.04;67.40;100638.97;4905101;29;45272;-71
2021/07/13 07:35:57;;;;;;;;;21.75;20.75;;;;;20.06;67.41;100645.13;4903852;29;45448;-71
2021/07/13 07:38:23;;;;;;;;;21.75;21.75;;;;;20.04;67.51;100642.53;4894568;29;46263;-71
2021/07/13 07:40:48;;;;;;;;;18.75;18.25;;;;;19.97;67.38;100650.25;4892808;29;45522;-71
2021/07/13 07:43:14;;;;;;;;;19.00;16.75;;;;;19.91;67.82;100649.84;4898423;29;45451;-71
2021/07/13 07:45:39;;;;;;;;;18.50;18.00;;;;;19.98;67.36;100657.41;4885885;29;45480;-71
2021/07/13 07:48:06;;;;;;;;;18.25;18.25;;;;;20.01;67.57;100656.31;4891807;29;46346;-71
2021/07/13 07:50:32;;;;;;;;;18.00;18.00;;;;;20.07;67.32;100655.00;4890244;29;45358;-71
2021/07/13 07:53:02;;;;;;;;;22.25;18.25;;;;;20.05;67.35;100663.25;4899214;29;45517;-71
2021/07/13 07:55:29;;;;;;;;;18.50;17.00;;;;;20.04;67.37;100660.66;4878059;29;45438;-71
2021/07/13 07:57:55;;;;;;;;;17.50;16.75;;;;;20.00;67.90;100649.19;4897134;29;46341;-71
2021/07/13 08:00:21;;;;;;;;;21.25;19.00;;;;;20.10;67.38;100671.03;4884188;29;45653;-71
2021/07/13 08:02:47;;;;;;;;;21.00;18.25;;;;;20.09;67.38;100666.59;4887243;29;45359;-71
2021/07/13 08:05:17;;;;;;;;;20.75;17.75;;;;;20.09;67.53;100659.31;4896314;29;45707;-74
2021/07/13 08:07:44;;;;;;;;;18.25;17.25;;;;;20.10;67.52;100661.06;4896647;29;46255;-73
2021/07/13 08:10:11;;;;;;;;;17.50;15.75;;;;;20.10;67.60;100668.34;4899934;29;45840;-72
2021/07/13 08:12:38;;;;;;;;;17.25;13.75;;;;;20.10;67.63;100680.03;4886172;29;45441;-71
2021/07/13 08:15:05;;;;;;;;;21.75;19.25;;;;;20.08;67.50;100673.88;4883960;29;45719;-71
2021/07/13 08:17:30;;;;;;;;;16.25;15.75;;;;;20.15;67.48;100677.00;4885447;29;45500;-71
2021/07/13 08:19:56;;;;;;;;;17.75;15.25;;;;;20.16;67.39;100678.69;4884832;29;45697;-71
2021/07/13 08:22:21;;;;;;;;;17.50;15.75;;;;;20.21;67.67;100686.50;4888062;29;45405;-71
2021/07/13 08:24:47;;;;;;;;;14.75;14.00;;;;;20.16;67.49;100679.59;4894425;29;45353;-71
2021/07/13 08:27:13;;;;;;;;;16.75;15.50;;;;;20.22;67.55;100686.38;4886767;29;46204;-71
2021/07/13 08:29:38;;;;;;;;;18.75;15.50;;;;;20.23;66.99;100670.97;4895054;29;45375;-71
2021/07/13 08:32:04;;;;;;;;;17.25;16.75;;;;;20.20;67.30;100676.63;4900833;29;45393;-71
2021/07/13 08:34:31;;;;;;;;;12.00;12.00;;;;;20.20;66.88;100672.09;4893551;29;45447;-71
2021/07/13 08:36:57;;;;;;;;;9.25;9.25;;;;;20.22;67.64;100683.69;4885182;29;46237;-71
2021/07/13 08:39:24;;;;;;;;;13.50;12.50;;;;;20.23;67.85;100680.00;4886686;29;45707;-71
2021/07/13 08:41:49;;;;;;;;;17.50;15.25;;;;;20.27;67.43;100680.63;4883363;29;45374;-71
2021/07/13 08:44:15;;;;;;;;;15.75;14.50;;;;;20.26;67.64;100684.31;4885042;29;45554;-71
2021/07/13 08:46:42;;;;;;;;;20.50;17.50;;;;;20.26;68.08;100681.59;4884266;29;45362;-71
2021/07/13 08:49:09;;;;;;;;;16.50;14.00;;;;;20.26;68.23;100692.44;4884686;29;45397;-71
2021/07/13 08:51:35;;;;;;;;;17.25;16.25;;;;;20.27;67.97;100680.63;4884979;29;45583;-76
2021/07/13 08:54:02;;;;;;;;;16.25;15.00;;;;;20.28;67.66;100672.38;4885361;29;45387;-71
2021/07/13 08:56:28;;;;;;;;;15.00;15.00;;;;;20.25;68.25;100661.78;4895375;29;47219;-72
2021/07/13 08:58:53;;;;;;;;;25.00;22.25;;;;;20.30;67.91;100669.56;4887923;29;45726;-72
2021/07/13 09:01:18;;;;;;;;;17.50;16.25;;;;;20.31;68.08;100672.16;4885031;29;45307;-72
2021/07/13 09:03:55;;;;;;;;;18.75;15.50;;;;;20.31;68.34;100666.75;4893894;29;45621;-72
2021/07/13 09:06:22;;;;;;;;;14.75;14.50;;;;;20.33;68.02;100674.72;4893092;29;45292;-72
2021/07/13 09:08:47;;;;;;;;;16.00;16.00;;;;;20.36;68.41;100678.09;4884201;29;45586;-72
2021/07/13 09:11:17;;;;;;;;;14.50;13.00;;;;;20.36;68.58;100682.63;4888335;29;45455;-72
2021/07/13 09:13:48;;;;;;;;;18.25;15.25;;;;;20.35;68.84;100692.63;4885150;29;45598;-72
2021/07/13 09:16:16;;;;;;;;;15.50;14.00;;;;;20.36;68.18;100694.38;4884698;29;47268;-72
2021/07/13 09:18:52;;;;;;;;;23.25;19.50;;;;;20.36;68.36;100688.06;4883964;29;45620;-72
2021/07/13 09:21:26;;;;;;;;;17.00;15.00;;;;;20.37;68.88;100695.22;4884431;29;45404;-72
2021/07/13 09:24:02;;;;;;;;;18.00;17.00;;;;;20.37;68.97;100692.53;4884540;29;45480;-72
2021/07/13 09:26:47;;;;;;;;;17.00;13.50;;;;;20.38;69.04;100699.69;4896397;29;45420;-72
2021/07/13 09:29:41;;;;;;;;;12.50;12.50;;;;;20.38;69.19;100702.41;4884154;29;45529;-73
2021/07/13 09:32:25;;;;;;;;;14.00;12.75;;;;;20.35;68.74;100694.47;4903149;29;45280;-72
2021/07/13 09:34:54;;;;;;;;;16.25;15.25;;;;;20.34;68.48;100696.31;4885220;29;45420;-72
2021/07/13 09:37:24;;;;;;;;;19.75;15.75;;;;;20.34;68.98;100696.31;4884558;29;45604;-72
2021/07/13 09:39:56;;;;;;;;;16.25;15.50;;;;;20.33;69.00;100705.44;4896101;29;45646;-72
2021/07/13 09:42:26;;;;;;;;;15.25;14.50;;;;;20.33;69.18;100704.56;4884162;29;45378;-72
2021/07/13 09:44:52;;;;;;;;;14.00;13.00;;;;;20.31;69.15;100706.50;4884673;29;45387;-72
2021/07/13 09:47:30;;;;;;;;;18.00;17.50;;;;;20.32;69.25;100706.41;4884062;29;46133;-72
2021/07/13 09:49:56;;;;;;;;;16.50;14.75;;;;;20.32;69.02;100703.69;4883781;29;45408;-72
2021/07/13 09:52:25;;;;;;;;;15.75;15.75;;;;;20.33;69.14;100705.44;4884077;29;45401;-72
2021/07/13 09:54:51;;;;;;;;;20.25;16.75;;;;;20.36;69.12;100712.47;4884393;29;45854;-72
2021/07/13 09:57:19;;;;;;;;;25.00;23.00;;;;;20.38;69.06;100715.06;4884112;29;45501;-70
2021/07/13 09:59:49;;;;;;;;;18.00;15.75;;;;;20.38;69.42;100721.38;4883709;29;45515;-70
2021/07/13 10:02:17;;;;;;;;;13.75;13.50;;;;;20.33;69.28;100718.09;4883767;29;45484;-72
2021/07/13 10:04:43;;;;;;;;;15.25;15.25;;;;;20.33;69.64;100731.66;4900876;29;45452;-72
2021/07/13 10:07:10;;;;;;;;;15.50;14.00;;;;;20.32;69.88;100719.09;4885483;29;46869;-72
2021/07/13 10:09:41;;;;;;;;;17.00;17.00;;;;;20.31;70.04;100717.34;4887186;29;45666;-71
2021/07/13 10:12:09;;;;;;;;;14.75;12.25;;;;;20.31;70.31;100714.66;4883857;29;45448;-72
2021/07/13 10:14:37;;;;;;;;;15.50;13.50;;;;;20.27;70.09;100713.16;4867111;29;45826;-71
2021/07/13 10:17:03;;;;;;;;;12.75;11.50;;;;;20.32;70.73;100721.81;4890273;29;45416;-72
2021/07/13 10:19:29;;;;;;;;;12.25;12.25;;;;;20.29;70.56;100719.31;4889569;29;45374;-71
2021/07/13 10:21:55;;;;;;;;;15.75;15.25;;;;;20.28;70.87;100712.16;4896126;29;45763;-71
2021/07/13 10:24:24;;;;;;;;;13.25;12.75;;;;;20.34;70.86;100728.84;4883778;29;45389;-71
2021/07/13 10:26:54;;;;;;;;;12.50;12.50;;;;;20.34;70.94;100726.13;4883928;29;46066;-71
2021/07/13 10:29:31;;;;;;;;;10.75;10.75;;;;;20.39;70.59;100722.22;4883061;29;45806;-71
2021/07/13 10:31:56;;;;;;;;;13.00;12.00;;;;;20.36;71.04;100724.19;4878964;29;45459;-72
2021/07/13 10:34:45;;;;;;;;;11.25;11.25;;;;;20.38;70.66;100723.19;4899504;29;45508;-72
2021/07/13 10:37:42;;;;;;;;;13.50;12.75;;;;;20.37;71.03;100725.03;4871397;29;46293;-72
2021/07/13 10:40:11;;;;;;;;;16.00;14.25;;;;;20.38;71.04;100724.09;4891891;29;45651;-72
2021/07/13 10:42:39;;;;;;;;;14.50;12.25;;;;;20.39;70.95;100728.50;4883692;29;45503;-72
2021/07/13 10:45:27;;;;;;;;;14.00;13.00;;;;;20.39;70.77;100728.50;4874841;29;45497;-72
2021/07/13 10:48:17;;;;;;;;;12.50;12.50;;;;;20.40;71.52;100727.53;4883253;29;46143;-72
2021/07/13 10:50:51;;;;;;;;;11.00;10.75;;;;;20.42;71.83;100730.13;4882840;29;45296;-72
2021/07/13 10:53:16;;;;;;;;;17.25;13.50;;;;;20.44;71.49;100722.75;4883716;29;45560;-72
2021/07/13 10:55:43;;;;;;;;;19.75;19.75;;;;;20.45;71.21;100733.47;4888113;29;45452;-72
2021/07/13 10:58:08;;;;;;;;;18.00;18.00;;;;;20.45;71.78;100727.19;4891831;29;45394;-72
2021/07/13 11:01:07;;;;;;;;;17.00;14.33;;;;;20.48;71.66;100718.81;4865445;29;45446;-72
2021/07/13 11:03:32;;;;;;;;;25.50;22.25;;;;;20.50;71.59;100722.31;4890615;29;45507;-71
2021/07/13 11:06:03;;;;;;;;;20.50;19.00;;;;;20.48;71.53;100707.97;4894259;29;45493;-72
2021/07/13 11:08:41;;;;;;;;;22.50;20.50;;;;;20.53;71.61;100719.34;4881034;29;48531;-72
2021/07/13 11:11:15;;;;;;;;;18.00;18.00;;;;;20.53;71.69;100720.22;4886290;29;45908;-71
2021/07/13 11:13:43;;;;;;;;;19.75;18.50;;;;;20.50;72.01;100712.31;4895549;29;45440;-72
2021/07/13 11:16:08;;;;;;;;;18.00;17.00;;;;;20.50;72.19;100720.44;4883248;29;45373;-72